createdAt,value
2022-08-05T00:00:50.657Z,9.63
2022-08-05T00:03:22.035Z,9.35
2022-08-05T00:06:05.523Z,10.77
2022-08-05T00:08:44.934Z,9.35
2022-08-05T00:11:20.612Z,10.57
2022-08-05T00:14:02.324Z,8.77
2022-08-05T00:16:36.563Z,9.90
2022-08-05T00:19:33.352Z,10.43
2022-08-05T00:22:05.386Z,10.23
2022-08-05T00:24:37.746Z,8.40
2022-08-05T00:27:16.688Z,8.53
2022-08-05T00:29:48.278Z,9.13
2022-08-05T00:32:20.495Z,8.80
2022-08-05T00:35:06.862Z,7.13
2022-08-05T00:37:52.675Z,7.67
2022-08-05T00:40:29.211Z,7.10
2022-08-05T00:43:02.720Z,7.07
2022-08-05T00:45:43.827Z,6.97
2022-08-05T00:48:18.053Z,7.73
2022-08-05T00:51:09.027Z,6.40
2022-08-05T00:54:02.690Z,6.03
2022-08-05T00:56:34.487Z,5.87
2022-08-05T00:59:06.999Z,5.80
2022-08-05T01:01:48.135Z,5.07
2022-08-05T01:04:26.780Z,5.27
2022-08-05T01:07:01.168Z,4.40
2022-08-05T01:09:36.573Z,4.20
2022-08-05T01:12:18.696Z,4.77
2022-08-05T01:14:53.266Z,4.30
2022-08-05T01:17:53.644Z,4.30
2022-08-05T01:20:30.117Z,4.60
2022-08-05T01:23:23.362Z,3.83
2022-08-05T01:26:18.752Z,3.73
2022-08-05T01:29:13.374Z,3.77
2022-08-05T01:31:49.658Z,3.40
2022-08-05T01:34:39.182Z,3.53
2022-08-05T01:37:24.440Z,3.00
2022-08-05T01:39:59.017Z,4.00
2022-08-05T01:42:32.749Z,3.97
2022-08-05T01:45:08.256Z,3.30
2022-08-05T01:47:43.190Z,3.10
2022-08-05T01:50:28.653Z,3.08
2022-08-05T01:53:04.376Z,3.67
2022-08-05T01:55:37.156Z,2.70
2022-08-05T01:58:15.469Z,3.03
2022-08-05T02:00:50.822Z,2.67
2022-08-05T02:03:33.982Z,2.60
2022-08-05T02:06:37.008Z,2.77
2022-08-05T02:08:59.964Z,2.70
2022-08-05T02:11:47.832Z,2.97
2022-08-05T02:14:32.352Z,2.87
2022-08-05T02:18:27.937Z,2.97
2022-08-05T02:23:01.368Z,2.30
2022-08-05T02:25:49.951Z,2.83
2022-08-05T02:28:29.188Z,2.60
2022-08-05T02:31:07.846Z,2.50
2022-08-05T02:33:57.368Z,3.27
2022-08-05T02:36:32.398Z,2.90
2022-08-05T02:39:08.823Z,3.30
2022-08-05T02:41:57.491Z,3.70
2022-08-05T02:44:34.241Z,2.53
2022-08-05T02:47:08.848Z,2.77
2022-08-05T02:49:44.369Z,2.85
2022-08-05T02:52:29.354Z,3.53
2022-08-05T02:55:05.627Z,3.15
2022-08-05T02:58:11.605Z,2.97
2022-08-05T03:00:33.269Z,2.50
2022-08-05T03:03:07.672Z,3.43
2022-08-05T03:06:57.024Z,3.30
2022-08-05T03:08:35.905Z,3.13
2022-08-05T03:11:54.886Z,2.37
2022-08-05T03:14:16.750Z,2.77
2022-08-05T03:16:48.796Z,3.23
2022-08-05T03:19:34.300Z,3.20
2022-08-05T03:22:16.409Z,3.60
2022-08-05T03:24:52.233Z,3.63
2022-08-05T03:27:29.460Z,3.73
2022-08-05T03:30:08.670Z,3.67
2022-08-05T03:32:41.107Z,3.63
2022-08-05T03:35:13.448Z,3.80
2022-08-05T03:37:45.997Z,3.97
2022-08-05T03:40:24.233Z,3.70
2022-08-05T03:43:59.273Z,3.80
2022-08-05T03:45:57.188Z,3.67
2022-08-05T03:48:30.924Z,3.63
2022-08-05T03:52:38.009Z,4.17
2022-08-05T03:54:58.873Z,3.60
2022-08-05T03:57:16.786Z,4.40
2022-08-05T03:59:55.733Z,4.00
2022-08-05T04:02:38.415Z,3.37
2022-08-05T04:05:17.613Z,3.53
2022-08-05T04:07:58.042Z,4.57
2022-08-05T04:10:37.596Z,3.57
2022-08-05T04:13:09.756Z,3.33
2022-08-05T04:16:03.331Z,3.60
2022-08-05T04:18:34.384Z,3.37
2022-08-05T04:21:07.210Z,3.50
2022-08-05T04:24:05.738Z,3.60
2022-08-05T04:26:34.770Z,3.53
2022-08-05T04:29:07.357Z,3.67
2022-08-05T04:31:39.523Z,3.60
2022-08-05T04:34:19.650Z,3.67
2022-08-05T04:37:03.464Z,3.57
2022-08-05T04:39:35.232Z,3.60
2022-08-05T04:42:07.474Z,4.20
2022-08-05T04:44:40.492Z,3.60
2022-08-05T04:47:15.765Z,3.90
2022-08-05T04:50:02.721Z,3.97
2022-08-05T04:52:41.047Z,3.93
2022-08-05T04:55:14.279Z,3.97
2022-08-05T04:57:47.517Z,3.37
2022-08-05T05:00:23.633Z,4.10
2022-08-05T05:02:56.603Z,3.88
2022-08-05T05:05:30.942Z,4.18
2022-08-05T05:08:14.114Z,4.80
2022-08-05T05:10:57.789Z,4.07
2022-08-05T05:13:32.337Z,4.47
2022-08-05T05:16:16.034Z,3.85
2022-08-05T05:19:16.477Z,4.23
2022-08-05T05:21:42.721Z,3.70
2022-08-05T05:24:17.962Z,4.10
2022-08-05T05:26:51.830Z,3.90
2022-08-05T05:29:23.362Z,3.87
2022-08-05T05:31:55.434Z,4.37
2022-08-05T05:34:27.523Z,3.97
2022-08-05T05:36:58.896Z,4.37
2022-08-05T05:39:34.388Z,3.90
2022-08-05T05:42:06.622Z,3.63
2022-08-05T05:44:43.148Z,3.67
2022-08-05T05:47:21.707Z,4.30
2022-08-05T05:49:56.900Z,3.83
2022-08-05T05:52:38.055Z,4.23
2022-08-05T05:55:14.640Z,4.47
2022-08-05T05:57:52.199Z,3.50
2022-08-05T06:00:27.762Z,3.50
2022-08-05T06:03:03.395Z,4.23
2022-08-05T06:05:55.524Z,4.50
2022-08-05T06:08:32.714Z,4.47
2022-08-05T06:11:04.409Z,4.47
2022-08-05T06:13:40.830Z,4.30
2022-08-05T06:16:30.074Z,3.90
2022-08-05T06:19:05.864Z,4.20
2022-08-05T06:21:42.912Z,4.13
2022-08-05T06:24:25.663Z,4.00
2022-08-05T06:26:57.353Z,4.00
2022-08-05T06:29:49.348Z,4.10
2022-08-05T06:32:26.165Z,4.03
2022-08-05T06:35:00.331Z,4.60
2022-08-05T06:37:57.055Z,3.97
2022-08-05T06:40:31.142Z,3.83
2022-08-05T06:43:03.931Z,4.22
2022-08-05T06:46:02.899Z,4.07
2022-08-05T06:48:55.314Z,3.95
2022-08-05T06:51:23.792Z,3.55
2022-08-05T06:54:02.034Z,3.97
2022-08-05T06:56:34.946Z,3.88
2022-08-05T06:59:09.384Z,4.35
2022-08-05T07:01:42.422Z,4.18
2022-08-05T07:04:14.275Z,3.42
2022-08-05T07:06:45.732Z,4.10
2022-08-05T07:09:21.779Z,3.53
2022-08-05T07:11:56.430Z,4.03
2022-08-05T07:14:50.632Z,3.40
2022-08-05T07:18:08.207Z,3.88
2022-08-05T07:20:32.985Z,4.13
2022-08-05T07:23:05.453Z,3.45
2022-08-05T07:25:56.318Z,3.30
2022-08-05T07:28:28.118Z,3.28
2022-08-05T07:30:59.471Z,3.70
2022-08-05T07:33:36.707Z,3.33
2022-08-05T07:36:20.869Z,3.60
2022-08-05T07:38:54.821Z,3.80
2022-08-05T07:42:07.943Z,3.60
2022-08-05T07:44:18.701Z,3.57
2022-08-05T07:46:50.706Z,3.93
2022-08-05T07:49:22.898Z,4.20
2022-08-05T07:51:55.175Z,3.80
2022-08-05T07:54:33.371Z,4.40
2022-08-05T07:57:13.789Z,3.80
2022-08-05T07:59:49.609Z,3.50
2022-08-05T08:02:31.459Z,3.60
2022-08-05T08:05:20.081Z,4.47
2022-08-05T08:07:59.698Z,4.10
2022-08-05T08:10:31.933Z,3.97
2022-08-05T08:13:04.422Z,3.87
2022-08-05T08:16:34.308Z,3.60
2022-08-05T08:18:27.945Z,3.83
2022-08-05T08:21:03.349Z,3.57
2022-08-05T08:24:01.239Z,3.78
2022-08-05T08:26:29.728Z,4.73
2022-08-05T08:29:22.266Z,4.30
2022-08-05T08:31:53.857Z,4.30
2022-08-05T08:34:30.843Z,3.97
2022-08-05T08:37:05.550Z,4.20
2022-08-05T08:39:37.918Z,3.88
2022-08-05T08:42:34.198Z,4.10
2022-08-05T08:45:19.347Z,3.63
2022-08-05T08:48:07.338Z,3.97
2022-08-05T08:51:22.492Z,3.55
2022-08-05T08:53:45.432Z,4.22
2022-08-05T08:56:17.304Z,3.83
2022-08-05T08:58:49.664Z,3.72
2022-08-05T09:01:22.031Z,4.05
2022-08-05T09:03:57.505Z,3.72
2022-08-05T09:06:31.476Z,4.05
2022-08-05T09:09:03.612Z,3.92
2022-08-05T09:11:52.204Z,4.47
2022-08-05T09:14:57.544Z,4.20
2022-08-05T09:17:42.256Z,4.25
2022-08-05T09:20:09.544Z,4.03
2022-08-05T09:23:05.455Z,4.65
2022-08-05T09:25:59.896Z,4.03
2022-08-05T09:28:37.429Z,4.10
2022-08-05T09:31:22.068Z,4.05
2022-08-05T09:34:05.248Z,4.50
2022-08-05T09:36:45.796Z,4.40
2022-08-05T09:39:41.200Z,4.10
2022-08-05T09:42:24.118Z,4.35
2022-08-05T09:46:04.611Z,4.47
2022-08-05T09:47:57.926Z,4.57
2022-08-05T09:50:44.086Z,4.37
2022-08-05T09:53:25.746Z,4.25
2022-08-05T09:56:04.046Z,4.47
2022-08-05T09:58:59.413Z,3.90
2022-08-05T10:01:36.784Z,4.20
2022-08-05T10:04:13.673Z,4.17
2022-08-05T10:06:59.361Z,4.43
2022-08-05T10:09:44.914Z,3.90
2022-08-05T10:12:30.220Z,3.78
2022-08-05T10:15:34.188Z,3.60
2022-08-05T10:18:11.582Z,4.27
2022-08-05T10:20:57.623Z,3.40
2022-08-05T10:23:55.801Z,4.50
2022-08-05T10:26:24.229Z,3.30
2022-08-05T10:29:03.236Z,3.53
2022-08-05T10:32:52.563Z,3.10
2022-08-05T10:34:31.158Z,3.37
2022-08-05T10:37:02.802Z,3.60
2022-08-05T10:40:03.235Z,3.53
2022-08-05T10:42:36.554Z,2.90
2022-08-05T10:45:23.556Z,3.37
2022-08-05T10:48:35.102Z,3.20
2022-08-05T10:51:22.275Z,2.90
2022-08-05T10:53:58.423Z,3.10
2022-08-05T10:56:45.134Z,2.83
2022-08-05T11:00:04.399Z,3.23
2022-08-05T11:02:14.174Z,3.10
2022-08-05T11:04:48.414Z,3.28
2022-08-05T11:07:33.074Z,3.20
2022-08-05T11:10:22.514Z,2.80
2022-08-05T11:15:44.030Z,3.00
2022-08-05T11:18:34.810Z,2.73
2022-08-05T11:21:31.847Z,4.23
2022-08-05T11:24:30.149Z,3.30
2022-08-05T11:27:52.006Z,3.50
2022-08-05T11:30:30.862Z,3.30
2022-08-05T11:33:47.914Z,3.70
2022-08-05T11:36:42.872Z,3.42
2022-08-05T11:39:16.946Z,2.90
2022-08-05T11:42:02.066Z,4.37
2022-08-05T11:44:53.236Z,3.90
2022-08-05T11:47:49.511Z,3.50
2022-08-05T11:50:17.988Z,3.57
2022-08-05T11:52:52.027Z,3.83
2022-08-05T11:55:32.127Z,4.83
2022-08-05T11:58:09.968Z,4.30
2022-08-05T12:00:44.295Z,4.93
2022-08-05T12:03:23.746Z,4.18
2022-08-05T12:06:02.922Z,4.35
2022-08-05T12:08:40.585Z,4.22
2022-08-05T12:11:28.289Z,3.97
2022-08-05T12:14:11.433Z,3.53
2022-08-05T12:16:45.266Z,3.85
2022-08-05T12:20:25.630Z,4.43
2022-08-05T12:22:09.636Z,2.75
2022-08-05T12:24:49.591Z,2.80
2022-08-05T12:27:33.153Z,2.42
2022-08-05T12:30:15.543Z,2.85
2022-08-05T12:32:53.561Z,2.80
2022-08-05T12:35:39.545Z,2.70
2022-08-05T12:38:11.426Z,2.78
2022-08-05T12:40:46.569Z,3.63
2022-08-05T12:43:20.575Z,2.33
2022-08-05T12:45:56.670Z,2.50
2022-08-05T12:48:37.866Z,1.25
2022-08-05T12:52:10.495Z,1.52
2022-08-05T12:56:57.297Z,1.67
2022-08-05T13:00:08.982Z,1.40
2022-08-05T13:02:36.160Z,1.48
2022-08-05T13:05:12.739Z,1.90
2022-08-05T13:08:02.447Z,1.58
2022-08-05T13:10:50.323Z,1.60
2022-08-05T13:14:04.638Z,1.70
2022-08-05T13:16:15.343Z,1.80
2022-08-05T13:18:52.921Z,1.80
2022-08-05T13:21:47.860Z,1.67
2022-08-05T13:24:36.214Z,1.45
2022-08-05T13:27:38.327Z,1.45
2022-08-05T13:30:35.145Z,1.95
2022-08-05T13:33:04.297Z,1.48
2022-08-05T13:35:47.362Z,1.63
2022-08-05T13:38:30.265Z,1.75
2022-08-05T13:41:03.635Z,2.00
2022-08-05T13:43:45.550Z,1.88
2022-08-05T13:49:18.775Z,2.45
2022-08-05T13:51:50.509Z,2.08
2022-08-05T13:54:26.331Z,2.42
2022-08-05T13:56:58.005Z,1.90
2022-08-05T13:59:30.731Z,2.15
2022-08-05T14:02:03.370Z,2.50
2022-08-05T14:04:55.075Z,2.65
2022-08-05T14:07:59.894Z,2.67
2022-08-05T14:10:28.802Z,2.50
2022-08-05T14:13:02.829Z,3.47
2022-08-05T14:16:05.084Z,3.10
2022-08-05T14:18:26.464Z,3.38
2022-08-05T14:20:57.802Z,2.63
2022-08-05T14:23:36.314Z,2.60
2022-08-05T14:26:08.022Z,2.55
2022-08-05T14:28:59.289Z,3.20
2022-08-05T14:32:02.750Z,3.30
2022-08-05T14:34:23.672Z,2.85
2022-08-05T14:36:55.160Z,2.90
2022-08-05T14:39:26.624Z,3.22
2022-08-05T14:42:19.539Z,2.90
2022-08-05T14:44:50.182Z,3.55
2022-08-05T14:48:02.448Z,2.85
2022-08-05T14:50:17.497Z,2.88
2022-08-05T14:52:53.498Z,3.03
2022-08-05T14:55:39.342Z,3.10
2022-08-05T14:58:13.788Z,3.05
2022-08-05T15:00:59.688Z,2.63
2022-08-05T15:03:33.909Z,2.85
2022-08-05T15:06:15.100Z,2.97
2022-08-05T15:08:59.868Z,3.85
2022-08-05T15:11:51.999Z,3.00
2022-08-05T15:14:35.601Z,3.15
2022-08-05T15:17:44.892Z,3.50
2022-08-05T15:20:17.082Z,2.80
2022-08-05T15:22:54.160Z,3.17
2022-08-05T15:25:51.331Z,3.33
2022-08-05T15:28:17.745Z,2.33
2022-08-05T15:30:52.950Z,2.67
2022-08-05T15:34:04.968Z,3.03
2022-08-05T15:36:17.773Z,2.33
2022-08-05T15:41:02.071Z,2.17
2022-08-05T15:41:56.387Z,1.95
2022-08-05T15:44:30.970Z,2.83
2022-08-05T15:47:03.597Z,2.50
2022-08-05T15:49:52.031Z,1.30
2022-08-05T15:52:29.585Z,1.35
2022-08-05T15:55:19.397Z,1.40
2022-08-05T15:57:56.506Z,1.20
2022-08-05T16:00:43.031Z,1.50
2022-08-05T16:03:19.770Z,0.90
2022-08-05T16:05:53.212Z,1.25
2022-08-05T16:08:30.681Z,1.00
2022-08-05T16:11:02.761Z,0.80
2022-08-05T16:13:36.401Z,0.80
2022-08-05T16:16:10.865Z,0.80
2022-08-05T16:18:51.786Z,0.75
2022-08-05T16:21:58.645Z,0.63
2022-08-05T16:24:41.265Z,0.77
2022-08-05T16:27:07.290Z,0.68
2022-08-05T16:29:38.830Z,1.20
2022-08-05T16:32:10.451Z,0.70
2022-08-05T16:34:42.666Z,0.80
2022-08-05T16:38:03.294Z,0.70
2022-08-05T16:40:13.334Z,0.70
2022-08-05T16:42:45.226Z,0.80
2022-08-05T16:46:05.136Z,0.50
2022-08-05T16:48:25.524Z,0.40
2022-08-05T16:51:09.937Z,0.82
2022-08-05T16:54:05.686Z,0.52
2022-08-05T16:56:35.356Z,0.90
2022-08-05T16:59:10.413Z,0.40
2022-08-05T17:01:53.884Z,0.80
2022-08-05T17:04:28.163Z,0.93
2022-08-05T17:07:03.225Z,0.30
2022-08-05T17:09:58.016Z,1.13
2022-08-05T17:12:51.236Z,0.50
2022-08-05T17:15:21.891Z,0.63
2022-08-05T17:17:54.972Z,0.40
2022-08-05T17:20:26.811Z,0.55
2022-08-05T17:22:58.791Z,0.30
2022-08-05T17:25:39.125Z,0.40
2022-08-05T17:28:15.470Z,0.60
2022-08-05T17:30:52.053Z,0.30
2022-08-05T17:33:23.855Z,0.45
2022-08-05T17:36:08.423Z,0.50
2022-08-05T17:38:42.153Z,0.60
2022-08-05T17:42:16.425Z,0.30
2022-08-05T17:44:05.626Z,0.57
2022-08-05T17:46:42.482Z,0.40
2022-08-05T17:49:14.507Z,0.47
2022-08-05T17:51:46.472Z,0.50
2022-08-05T17:54:23.362Z,0.40
2022-08-05T17:56:54.945Z,0.40
2022-08-05T17:59:30.245Z,0.63
2022-08-05T18:02:02.796Z,0.60
2022-08-05T18:04:53.394Z,0.45
2022-08-05T18:07:40.900Z,0.30
2022-08-05T18:10:20.545Z,0.40
2022-08-05T18:12:52.626Z,0.52
2022-08-05T18:15:26.987Z,0.50
2022-08-05T18:18:03.536Z,0.40
2022-08-05T18:20:37.680Z,0.33
2022-08-05T18:23:12.285Z,0.50
2022-08-05T18:25:45.239Z,0.40
2022-08-05T18:28:17.626Z,0.50
2022-08-05T18:30:53.354Z,0.40
2022-08-05T18:33:24.715Z,0.30
2022-08-05T18:36:03.729Z,0.40
2022-08-05T18:38:36.798Z,0.20
2022-08-05T18:41:57.469Z,0.50
2022-08-05T18:44:06.276Z,0.57
2022-08-05T18:46:37.958Z,0.67
2022-08-05T18:49:44.612Z,0.40
2022-08-05T18:52:32.945Z,0.53
2022-08-05T18:55:06.369Z,0.50
2022-08-05T18:57:50.368Z,0.47
2022-08-05T19:00:28.839Z,0.40
2022-08-05T19:03:01.477Z,0.45
2022-08-05T19:06:12.763Z,0.30
2022-08-05T19:08:30.620Z,0.40
2022-08-05T19:11:04.517Z,0.47
2022-08-05T19:13:36.928Z,0.60
2022-08-05T19:16:25.173Z,0.40
2022-08-05T19:19:00.571Z,0.33
2022-08-05T19:21:34.649Z,0.57
2022-08-05T19:24:12.584Z,0.40
2022-08-05T19:26:55.236Z,0.50
2022-08-05T19:29:35.764Z,0.50
2022-08-05T19:32:11.534Z,0.40
2022-08-05T19:34:54.555Z,0.60
2022-08-05T19:37:47.379Z,0.40
2022-08-05T19:40:18.532Z,0.50
2022-08-05T19:43:04.476Z,0.40
2022-08-05T19:45:37.175Z,0.40
2022-08-05T19:48:14.278Z,0.50
2022-08-05T19:50:46.094Z,0.70
2022-08-05T19:53:17.474Z,0.40
2022-08-05T19:56:14.276Z,0.50
2022-08-05T19:58:54.107Z,0.60
2022-08-05T20:01:28.310Z,0.40
2022-08-05T20:04:00.893Z,0.50
2022-08-05T20:06:37.584Z,0.40
2022-08-05T20:09:17.332Z,0.47
2022-08-05T20:11:48.887Z,0.50
2022-08-05T20:14:27.007Z,0.50
2022-08-05T20:16:59.153Z,0.50
2022-08-05T20:19:36.217Z,0.40
2022-08-05T20:22:09.524Z,0.50
2022-08-05T20:24:41.152Z,0.67
2022-08-05T20:27:13.356Z,0.43
2022-08-05T20:29:52.206Z,1.00
2022-08-05T20:32:29.424Z,0.80
2022-08-05T20:35:01.156Z,0.50
2022-08-05T20:38:05.637Z,0.50
2022-08-05T20:40:25.204Z,0.90
2022-08-05T20:43:00.115Z,0.73
2022-08-05T20:45:56.429Z,1.17
2022-08-05T20:48:23.296Z,0.77
2022-08-05T20:50:56.252Z,0.67
2022-08-05T20:53:37.025Z,0.60
2022-08-05T20:56:12.193Z,0.70
2022-08-05T20:58:43.569Z,1.03
2022-08-05T21:01:15.257Z,0.97
2022-08-05T21:03:48.136Z,0.87
2022-08-05T21:06:28.503Z,0.80
2022-08-05T21:09:01.186Z,0.80
2022-08-05T21:12:10.868Z,0.73
2022-08-05T21:14:26.602Z,0.63
2022-08-05T21:16:58.100Z,1.10
2022-08-05T21:19:29.551Z,0.90
2022-08-05T21:22:23.201Z,1.00
2022-08-05T21:27:27.260Z,0.80
2022-08-05T21:29:58.943Z,1.00
2022-08-05T21:32:33.493Z,1.00
2022-08-05T21:35:08.816Z,0.63
2022-08-05T21:37:53.466Z,1.00
2022-08-05T21:40:25.327Z,0.93
2022-08-05T21:42:59.189Z,1.10
2022-08-05T21:45:56.367Z,0.90
2022-08-05T21:48:22.495Z,1.47
2022-08-05T21:50:56.133Z,1.20
2022-08-05T21:53:28.780Z,1.17
2022-08-05T21:56:06.227Z,0.90
2022-08-05T21:58:57.112Z,1.30
2022-08-05T22:01:29.229Z,1.57
2022-08-05T22:04:06.949Z,1.17
2022-08-05T22:06:50.469Z,1.40
2022-08-05T22:09:22.371Z,1.33
2022-08-05T22:11:54.711Z,1.00
2022-08-05T22:14:35.093Z,1.30
2022-08-05T22:17:09.254Z,1.53
2022-08-05T22:20:03.576Z,1.10
2022-08-05T22:22:53.206Z,1.17
2022-08-05T22:26:09.753Z,1.23
2022-08-05T22:28:36.409Z,1.10
2022-08-05T22:31:11.236Z,1.37
2022-08-05T22:33:56.945Z,1.17
2022-08-05T22:36:29.487Z,1.10
2022-08-05T22:39:09.565Z,1.03
2022-08-05T22:42:09.626Z,1.17
2022-08-05T22:44:34.798Z,1.30
2022-08-05T22:47:06.556Z,1.17
2022-08-05T22:50:19.594Z,1.63
2022-08-05T22:52:32.627Z,1.37
2022-08-05T22:55:19.499Z,1.17
2022-08-05T23:00:24.448Z,1.00
2022-08-05T23:02:58.162Z,1.50
2022-08-05T23:05:29.556Z,1.33
2022-08-05T23:08:07.255Z,1.63
2022-08-05T23:10:43.207Z,1.65
2022-08-05T23:13:14.542Z,1.40
2022-08-05T23:15:46.022Z,1.40
2022-08-05T23:18:22.997Z,1.48
2022-08-05T23:20:54.368Z,1.63
2022-08-05T23:23:25.689Z,1.30
2022-08-05T23:26:01.297Z,1.75
2022-08-05T23:28:32.806Z,1.40
2022-08-05T23:31:16.542Z,1.67
2022-08-05T23:34:05.175Z,1.30
2022-08-05T23:36:39.826Z,1.60
2022-08-05T23:39:31.891Z,1.57
2022-08-05T23:42:03.953Z,1.53
2022-08-05T23:44:39.996Z,1.20
2022-08-05T23:47:16.114Z,1.13
2022-08-05T23:49:47.481Z,1.20
2022-08-05T23:52:32.057Z,1.30
2022-08-05T23:55:09.613Z,1.33
2022-08-05T23:57:42.240Z,1.50
